Airfield :
LOGIN :

Register | Disclaimer

   EN    FR    IT 

 










Legend :    VFR   Marginal VFR   IFR   Intensive IFR   Very Intensive IFR
Visi :
Ceiling :
>= 8 km
>= 3000ft
5 to 8 km
1000 to 3000 ft
1500m to 5 km
500 to 1000 ft
800 to 1500m
200 to 500 ft
< 800m
< 200 ft
Symbols :   Thunderstorms  Fog  Heavy snow  Heavy precipitations  Wind > 20 kt
SIGMETs :     Misc.  Thunderstorms  Icing  Turbulence  Mountain Waves  Volcanic Ashes







- Airport Elevation : 614 ft
- IATA code : CRL


EBCI - Charleroi

CURRENT METAR :
  • 112220Z VRB01KT 9999 SCT048 02/M00 Q1024 NOSIG

EXPIRED METARs :
  • 112150Z 21004KT 9999 BKN048 02/00 Q1025 NOSIG
  • 112120Z 22003KT 9999 BKN048 02/M01 Q1025 NOSIG
  • 112050Z 27003KT 240V300 9999 BKN048 03/00 Q1025 NOSIG
  • 112020Z 25003KT 9999 SCT048 03/00 Q1025 NOSIG
  • 111950Z 25003KT 9999 SCT047 03/01 Q1025 NOSIG

TAF TAF EBCI
Valid from the 11 at 18:00 until the 13 at 00:00 UTC


111710Z 1118/1224 27004KT 9999 SCT045
BECMG 1123/1201 2000 MIFG
PROB40
TEMPO 1203/1209 0150 FZFG VV002
BECMG 1209/1211 6000 NSW SCT006
BECMG 1222/1224 4000 BR
No reported NOTAMs for that airfield.



MET'MAP, your aeronautical weather chart ! - Copyright ORBIFLY December 2007 - Disclaimer

ORBIFLY MET'MAP TEAM :

Programming & Development : Alexandra Zaïnal
Concept & Development : Baudouin d'Aumeries
Co-Development & Prog : Marc-Olivier Méhu
Technical & hardware support : Manuel Goepfert

Contact : metmap@orbifly.com




SOURCES & CREDITS :

   NOAA